createdAt,value
2019-06-08T00:02:08.545Z,0.60
2019-06-08T00:04:39.616Z,0.80
2019-06-08T00:07:09.816Z,0.70
2019-06-08T00:09:41.066Z,1.10
2019-06-08T00:12:12.952Z,0.90
2019-06-08T00:14:44.290Z,0.70
2019-06-08T00:17:30.308Z,0.70
2019-06-08T00:19:48.323Z,0.60
2019-06-08T00:22:19.791Z,0.50
2019-06-08T00:24:51.024Z,0.53
2019-06-08T00:27:23.052Z,0.77
2019-06-08T00:29:54.940Z,0.87
2019-06-08T00:32:26.104Z,0.63
2019-06-08T00:34:57.478Z,0.60
2019-06-08T00:37:28.463Z,0.73
2019-06-08T00:39:58.652Z,0.70
2019-06-08T00:42:29.975Z,0.70
2019-06-08T00:45:01.264Z,0.70
2019-06-08T00:47:47.049Z,0.80
2019-06-08T00:50:08.542Z,0.60
2019-06-08T00:52:39.788Z,0.50
2019-06-08T00:55:10.968Z,0.70
2019-06-08T00:57:42.185Z,0.90
2019-06-08T01:00:13.381Z,0.73
2019-06-08T01:02:44.579Z,0.80
2019-06-08T01:05:15.641Z,0.70
2019-06-08T01:07:46.990Z,0.80
2019-06-08T01:10:19.217Z,0.70
2019-06-08T01:12:50.534Z,0.90
2019-06-08T01:15:27.735Z,0.80
2019-06-08T01:18:02.683Z,0.80
2019-06-08T01:20:27.519Z,0.90
2019-06-08T01:22:58.718Z,0.67
2019-06-08T01:25:30.153Z,0.77
2019-06-08T01:28:01.061Z,0.83
2019-06-08T01:30:32.545Z,0.73
2019-06-08T01:33:03.654Z,0.77
2019-06-08T01:35:34.929Z,0.77
2019-06-08T01:38:06.048Z,0.80
2019-06-08T01:40:37.486Z,0.70
2019-06-08T01:43:08.395Z,0.70
2019-06-08T01:45:39.657Z,0.67
2019-06-08T01:48:20.140Z,0.70
2019-06-08T01:50:42.723Z,0.77
2019-06-08T01:53:13.951Z,0.50
2019-06-08T01:55:44.982Z,0.80
2019-06-08T01:58:16.160Z,0.60
2019-06-08T02:00:47.362Z,0.80
2019-06-08T02:03:18.680Z,0.90
2019-06-08T02:05:49.760Z,0.63
2019-06-08T02:08:20.901Z,0.90
2019-06-08T02:10:51.897Z,1.00
2019-06-08T02:13:22.970Z,0.70
2019-06-08T02:15:54.019Z,0.67
2019-06-08T02:18:36.327Z,0.63
2019-06-08T02:20:58.063Z,1.00
2019-06-08T02:23:31.108Z,0.87
2019-06-08T02:26:02.252Z,0.70
2019-06-08T02:28:33.555Z,0.70
2019-06-08T02:31:05.064Z,0.70
2019-06-08T02:33:37.346Z,0.87
2019-06-08T02:36:08.771Z,0.80
2019-06-08T02:38:39.841Z,0.67
2019-06-08T02:41:11.067Z,0.80
2019-06-08T02:43:42.145Z,0.93
2019-06-08T02:46:13.373Z,0.80
2019-06-08T02:49:02.441Z,0.67
2019-06-08T02:51:18.087Z,0.80
2019-06-08T02:53:49.924Z,0.73
2019-06-08T02:56:23.771Z,0.90
2019-06-08T02:58:57.983Z,0.70
2019-06-08T03:01:31.302Z,0.80
2019-06-08T03:04:02.897Z,1.07
2019-06-08T03:06:38.898Z,0.70
2019-06-08T03:09:09.749Z,0.80
2019-06-08T03:11:42.000Z,0.73
2019-06-08T03:14:13.540Z,0.57
2019-06-08T03:16:44.576Z,0.70
2019-06-08T03:19:21.899Z,0.70
2019-06-08T03:21:48.636Z,0.70
2019-06-08T03:24:19.801Z,0.60
2019-06-08T03:26:50.829Z,0.80
2019-06-08T03:29:22.023Z,0.50
2019-06-08T03:31:56.395Z,0.53
2019-06-08T03:34:25.922Z,1.00
2019-06-08T03:36:57.695Z,0.60
2019-06-08T03:39:28.105Z,0.67
2019-06-08T03:41:59.370Z,0.80
2019-06-08T03:44:30.416Z,0.83
2019-06-08T03:47:01.591Z,0.87
2019-06-08T03:49:44.949Z,0.70
2019-06-08T03:52:05.519Z,1.00
2019-06-08T03:54:38.902Z,0.70
2019-06-08T03:57:09.258Z,0.70
2019-06-08T03:59:41.064Z,0.70
2019-06-08T04:02:13.098Z,0.63
2019-06-08T04:04:46.073Z,0.80
2019-06-08T04:07:16.842Z,0.77
2019-06-08T04:09:47.874Z,0.80
2019-06-08T04:12:18.165Z,0.90
2019-06-08T04:14:50.494Z,0.77
2019-06-08T04:17:21.552Z,1.10
2019-06-08T04:20:09.425Z,1.00
2019-06-08T04:22:25.560Z,0.80
2019-06-08T04:24:56.901Z,0.80
2019-06-08T04:27:27.879Z,0.50
2019-06-08T04:29:59.059Z,0.67
2019-06-08T04:32:30.212Z,0.60
2019-06-08T04:35:01.447Z,0.67
2019-06-08T04:37:32.743Z,0.90
2019-06-08T04:40:06.295Z,0.70
2019-06-08T04:42:39.232Z,0.80
2019-06-08T04:45:11.066Z,0.97
2019-06-08T04:47:43.632Z,0.97
2019-06-08T04:50:22.471Z,0.70
2019-06-08T04:52:48.041Z,0.90
2019-06-08T04:55:19.944Z,0.60
2019-06-08T04:57:51.100Z,0.90
2019-06-08T05:00:22.246Z,0.80
2019-06-08T05:02:53.967Z,0.80
2019-06-08T05:05:25.020Z,0.90
2019-06-08T05:07:56.224Z,0.80
2019-06-08T05:10:27.190Z,0.80
2019-06-08T05:12:58.545Z,0.90
2019-06-08T05:15:29.416Z,1.00
2019-06-08T05:18:00.710Z,0.90
2019-06-08T05:20:39.016Z,0.87
2019-06-08T05:23:03.752Z,0.80
2019-06-08T05:25:35.062Z,0.90
2019-06-08T05:28:06.180Z,0.90
2019-06-08T05:30:37.425Z,0.90
2019-06-08T05:33:08.517Z,0.80
2019-06-08T05:35:39.776Z,1.00
2019-06-08T05:38:10.747Z,0.90
2019-06-08T05:40:42.118Z,0.90
2019-06-08T05:43:13.120Z,1.10
2019-06-08T05:45:45.698Z,0.60
2019-06-08T05:48:16.759Z,0.90
2019-06-08T05:51:00.232Z,0.77
2019-06-08T05:53:20.598Z,2.10
2019-06-08T05:55:52.325Z,0.83
2019-06-08T05:58:23.202Z,1.17
2019-06-08T06:00:53.300Z,0.90
2019-06-08T06:03:24.376Z,0.90
2019-06-08T06:05:55.373Z,0.87
2019-06-08T06:08:26.620Z,1.00
2019-06-08T06:11:00.788Z,1.00
2019-06-08T06:13:31.938Z,1.10
2019-06-08T06:16:03.071Z,2.47
2019-06-08T06:18:34.462Z,1.23
2019-06-08T06:21:11.088Z,1.00
2019-06-08T06:23:38.542Z,1.60
2019-06-08T06:26:09.542Z,1.07
2019-06-08T06:28:43.806Z,1.63
2019-06-08T06:31:14.907Z,0.93
2019-06-08T06:33:45.975Z,0.60
2019-06-08T06:36:17.407Z,1.00
2019-06-08T06:38:50.054Z,0.83
2019-06-08T06:41:21.379Z,0.93
2019-06-08T06:43:52.381Z,0.80
2019-06-08T06:46:23.864Z,3.80
2019-06-08T06:48:54.845Z,1.17
2019-06-08T06:51:26.969Z,0.80
2019-06-08T06:53:57.954Z,1.10
2019-06-08T06:56:29.568Z,0.90
2019-06-08T06:59:00.508Z,1.00
2019-06-08T07:01:32.630Z,1.13
2019-06-08T07:04:03.774Z,0.87
2019-06-08T07:06:34.032Z,0.73
2019-06-08T07:09:06.795Z,1.10
2019-06-08T07:11:37.834Z,0.83
2019-06-08T07:14:09.249Z,0.77
2019-06-08T07:16:40.245Z,0.63
2019-06-08T07:19:14.619Z,0.73
2019-06-08T07:21:46.152Z,0.83
2019-06-08T07:24:17.301Z,0.70
2019-06-08T07:26:48.335Z,0.80
2019-06-08T07:29:19.403Z,0.90
2019-06-08T07:31:51.679Z,1.20
2019-06-08T07:34:23.512Z,0.83
2019-06-08T07:36:55.549Z,0.80
2019-06-08T07:39:26.934Z,1.17
2019-06-08T07:41:57.974Z,1.10
2019-06-08T07:44:28.204Z,1.00
2019-06-08T07:47:00.148Z,0.90
2019-06-08T07:49:31.171Z,1.43
2019-06-08T07:52:10.561Z,0.53
2019-06-08T07:54:40.729Z,0.90
2019-06-08T07:57:14.701Z,0.70
2019-06-08T07:59:45.734Z,0.80
2019-06-08T08:02:17.048Z,0.80
2019-06-08T08:04:48.444Z,1.00
2019-06-08T08:07:19.660Z,0.80
2019-06-08T08:09:50.723Z,0.90
2019-06-08T08:12:21.970Z,1.00
2019-06-08T08:14:53.342Z,0.83
2019-06-08T08:17:23.398Z,0.90
2019-06-08T08:19:55.176Z,0.90
2019-06-08T08:22:29.488Z,1.03
2019-06-08T08:25:03.257Z,1.10
2019-06-08T08:27:32.315Z,1.10
2019-06-08T08:30:05.050Z,0.70
2019-06-08T08:32:38.071Z,0.90
2019-06-08T08:35:09.236Z,1.10
2019-06-08T08:37:40.259Z,1.10
2019-06-08T08:40:12.271Z,1.50
2019-06-08T08:42:43.445Z,1.00
2019-06-08T08:45:15.378Z,1.10
2019-06-08T08:47:48.364Z,2.00
2019-06-08T08:50:19.569Z,1.20
2019-06-08T08:52:51.300Z,1.43
2019-06-08T08:55:22.442Z,1.40
2019-06-08T08:57:54.753Z,1.13
2019-06-08T09:00:27.990Z,1.27
2019-06-08T09:03:13.142Z,1.20
2019-06-08T09:05:33.184Z,1.27
2019-06-08T09:08:08.636Z,1.20
2019-06-08T09:10:40.291Z,1.03
2019-06-08T09:13:12.074Z,1.43
2019-06-08T09:15:43.405Z,1.53
2019-06-08T09:18:14.739Z,1.70
2019-06-08T09:20:47.892Z,1.40
2019-06-08T09:23:21.816Z,1.47
2019-06-08T09:25:53.565Z,1.20
2019-06-08T09:28:24.689Z,1.83
2019-06-08T09:30:56.709Z,1.20
2019-06-08T09:33:28.801Z,1.20
2019-06-08T09:36:02.806Z,1.30
2019-06-08T09:38:32.843Z,1.40
2019-06-08T09:41:05.440Z,1.30
2019-06-08T09:43:38.840Z,1.50
2019-06-08T09:46:09.685Z,1.70
2019-06-08T09:48:40.670Z,1.80
2019-06-08T09:51:12.254Z,2.00
2019-06-08T09:53:43.217Z,1.33
2019-06-08T09:56:14.594Z,1.87
2019-06-08T09:58:45.524Z,1.20
2019-06-08T10:01:18.496Z,1.40
2019-06-08T10:03:49.671Z,1.20
2019-06-08T10:06:21.820Z,1.47
2019-06-08T10:08:54.178Z,1.17
2019-06-08T10:11:24.439Z,1.50
2019-06-08T10:13:59.012Z,1.20
2019-06-08T10:16:30.665Z,1.30
2019-06-08T10:19:03.926Z,1.40
2019-06-08T10:21:34.019Z,1.47
2019-06-08T10:24:08.749Z,1.70
2019-06-08T10:26:38.020Z,1.93
2019-06-08T10:29:10.540Z,1.50
2019-06-08T10:31:43.642Z,1.20
2019-06-08T10:34:14.942Z,1.20
2019-06-08T10:36:46.011Z,1.90
2019-06-08T10:39:20.363Z,1.83
2019-06-08T10:41:53.005Z,1.50
2019-06-08T10:44:23.133Z,1.50
2019-06-08T10:46:54.302Z,1.47
2019-06-08T10:49:27.837Z,1.30
2019-06-08T10:52:01.617Z,1.33
2019-06-08T10:54:33.696Z,1.50
2019-06-08T10:57:07.157Z,1.40
2019-06-08T10:59:40.235Z,1.73
2019-06-08T11:02:14.628Z,1.90
2019-06-08T11:04:48.302Z,1.87
2019-06-08T11:07:18.732Z,1.47
2019-06-08T11:09:59.798Z,1.80
2019-06-08T11:12:31.422Z,1.97
2019-06-08T11:15:09.283Z,1.53
2019-06-08T11:17:39.120Z,1.70
2019-06-08T11:20:11.895Z,1.90
2019-06-08T11:22:43.162Z,1.60
2019-06-08T11:25:16.352Z,1.30
2019-06-08T11:27:47.543Z,1.80
2019-06-08T11:30:24.135Z,1.63
2019-06-08T11:32:52.536Z,1.50
2019-06-08T11:35:23.750Z,1.40
2019-06-08T11:37:54.794Z,1.60
2019-06-08T11:40:27.848Z,1.33
2019-06-08T11:43:00.234Z,1.30
2019-06-08T11:45:31.847Z,1.47
2019-06-08T11:48:04.527Z,2.00
2019-06-08T11:50:41.964Z,1.70
2019-06-08T11:53:14.264Z,1.80
2019-06-08T11:55:44.566Z,1.70
2019-06-08T11:58:21.896Z,1.80
2019-06-08T12:01:04.597Z,1.37
2019-06-08T12:03:34.916Z,1.53
2019-06-08T12:06:14.338Z,1.43
2019-06-08T12:08:47.282Z,2.13
2019-06-08T12:11:19.793Z,2.00
2019-06-08T12:13:50.117Z,1.63
2019-06-08T12:16:24.368Z,1.53
2019-06-08T12:18:58.411Z,1.50
2019-06-08T12:21:28.291Z,1.50
2019-06-08T12:23:59.619Z,1.47
2019-06-08T12:26:30.805Z,1.80
2019-06-08T12:29:02.202Z,1.60
2019-06-08T12:31:33.295Z,1.80
2019-06-08T12:34:05.191Z,1.50
2019-06-08T12:36:37.531Z,1.40
2019-06-08T12:39:10.095Z,1.27
2019-06-08T12:41:41.210Z,1.67
2019-06-08T12:44:15.556Z,1.47
2019-06-08T12:46:48.501Z,1.30
2019-06-08T12:49:20.382Z,1.63
2019-06-08T12:51:51.985Z,1.50
2019-06-08T12:54:23.033Z,1.30
2019-06-08T12:56:54.322Z,1.57
2019-06-08T12:59:25.448Z,1.27
2019-06-08T13:01:58.664Z,1.30
2019-06-08T13:04:29.499Z,1.60
2019-06-08T13:07:01.185Z,1.50
2019-06-08T13:09:32.320Z,1.40
2019-06-08T13:12:03.907Z,1.57
2019-06-08T13:14:34.929Z,1.37
2019-06-08T13:17:08.656Z,1.10
2019-06-08T13:19:40.928Z,1.30
2019-06-08T13:22:11.146Z,1.20
2019-06-08T13:24:43.181Z,1.90
2019-06-08T13:27:15.431Z,1.57
2019-06-08T13:29:48.895Z,1.37
2019-06-08T13:32:21.877Z,1.50
2019-06-08T13:34:53.149Z,1.32
2019-06-08T13:37:24.215Z,1.10
2019-06-08T13:39:55.518Z,1.20
2019-06-08T13:42:27.946Z,1.20
2019-06-08T13:44:59.444Z,1.97
2019-06-08T13:47:30.561Z,1.60
2019-06-08T13:50:02.081Z,1.42
2019-06-08T13:52:33.085Z,1.42
2019-06-08T13:55:09.004Z,1.30
2019-06-08T13:57:40.431Z,1.67
2019-06-08T14:00:11.943Z,1.70
2019-06-08T14:02:44.535Z,1.20
2019-06-08T14:05:24.780Z,1.60
2019-06-08T14:07:51.685Z,1.27
2019-06-08T14:10:34.502Z,1.40
2019-06-08T14:13:06.306Z,1.40
2019-06-08T14:15:38.060Z,1.20
2019-06-08T14:18:09.442Z,1.30
2019-06-08T14:20:40.470Z,1.73
2019-06-08T14:23:11.796Z,1.40
2019-06-08T14:25:50.631Z,1.40
2019-06-08T14:28:19.261Z,1.75
2019-06-08T14:30:48.869Z,1.32
2019-06-08T14:33:25.178Z,1.62
2019-06-08T14:35:55.539Z,1.27
2019-06-08T14:38:34.885Z,1.20
2019-06-08T14:40:59.083Z,1.37
2019-06-08T14:43:31.396Z,1.53
2019-06-08T14:46:02.642Z,1.77
2019-06-08T14:48:34.068Z,1.83
2019-06-08T14:51:05.343Z,1.70
2019-06-08T14:53:38.619Z,1.60
2019-06-08T14:56:09.593Z,1.57
2019-06-08T14:58:40.660Z,1.50
2019-06-08T15:01:12.051Z,1.83
2019-06-08T15:03:43.110Z,1.20
2019-06-08T15:06:14.550Z,1.50
2019-06-08T15:08:50.054Z,1.50
2019-06-08T15:11:19.644Z,1.55
2019-06-08T15:13:50.695Z,1.30
2019-06-08T15:16:21.592Z,1.10
2019-06-08T15:18:52.959Z,1.50
2019-06-08T15:21:25.368Z,1.20
2019-06-08T15:23:58.061Z,1.33
2019-06-08T15:26:39.247Z,1.37
2019-06-08T15:29:02.091Z,1.30
2019-06-08T15:31:33.123Z,1.10
2019-06-08T15:34:04.364Z,1.30
2019-06-08T15:36:35.250Z,1.30
2019-06-08T15:39:07.956Z,1.30
2019-06-08T15:41:38.887Z,1.20
2019-06-08T15:44:10.187Z,1.30
2019-06-08T15:46:41.404Z,1.80
2019-06-08T15:49:11.706Z,1.40
2019-06-08T15:51:43.123Z,1.40
2019-06-08T15:54:14.274Z,0.97
2019-06-08T15:56:49.514Z,1.40
2019-06-08T15:59:18.433Z,1.13
2019-06-08T16:01:49.529Z,1.20
2019-06-08T16:04:20.483Z,1.30
2019-06-08T16:06:51.750Z,1.73
2019-06-08T16:09:23.974Z,2.72
2019-06-08T16:11:55.436Z,1.73
2019-06-08T16:14:26.745Z,1.40
2019-06-08T16:16:58.194Z,1.20
2019-06-08T16:19:29.628Z,1.20
2019-06-08T16:21:59.829Z,1.47
2019-06-08T16:24:31.893Z,1.30
2019-06-08T16:27:02.920Z,1.10
2019-06-08T16:29:35.165Z,1.27
2019-06-08T16:32:06.371Z,1.40
2019-06-08T16:34:37.609Z,1.60
2019-06-08T16:37:10.393Z,1.30
2019-06-08T16:39:41.742Z,1.80
2019-06-08T16:42:12.738Z,1.20
2019-06-08T16:44:44.060Z,1.93
2019-06-08T16:47:15.151Z,1.70
2019-06-08T16:49:46.300Z,1.20
2019-06-08T16:52:20.291Z,1.13
2019-06-08T16:54:50.381Z,1.30
2019-06-08T16:57:21.679Z,1.33
2019-06-08T16:59:52.674Z,1.27
2019-06-08T17:02:22.995Z,1.23
2019-06-08T17:04:52.510Z,1.20
2019-06-08T17:07:23.376Z,1.40
2019-06-08T17:09:54.339Z,1.50
2019-06-08T17:12:25.596Z,1.10
2019-06-08T17:14:56.599Z,1.30
2019-06-08T17:17:27.735Z,1.17
2019-06-08T17:19:58.785Z,1.10
2019-06-08T17:22:30.284Z,1.77
2019-06-08T17:25:01.317Z,4.57
2019-06-08T17:27:34.609Z,3.02
2019-06-08T17:30:08.530Z,1.73
2019-06-08T17:32:40.515Z,1.10
2019-06-08T17:35:12.010Z,1.20
2019-06-08T17:37:43.134Z,1.30
2019-06-08T17:40:14.746Z,2.10
2019-06-08T17:42:45.821Z,3.77
2019-06-08T17:45:18.369Z,1.20
2019-06-08T17:47:49.485Z,2.00
2019-06-08T17:50:22.413Z,1.83
2019-06-08T17:52:53.567Z,2.77
2019-06-08T17:55:25.191Z,1.93
2019-06-08T17:57:56.236Z,1.40
2019-06-08T18:00:27.644Z,1.57
2019-06-08T18:03:00.603Z,1.67
2019-06-08T18:05:30.894Z,1.87
2019-06-08T18:08:02.230Z,1.50
2019-06-08T18:10:34.036Z,1.30
2019-06-08T18:13:07.285Z,1.30
2019-06-08T18:15:39.112Z,1.67
2019-06-08T18:18:11.440Z,1.50
2019-06-08T18:20:43.851Z,1.20
2019-06-08T18:23:18.656Z,1.70
2019-06-08T18:25:50.209Z,2.00
2019-06-08T18:28:21.522Z,1.97
2019-06-08T18:30:53.034Z,1.23
2019-06-08T18:33:24.360Z,1.50
2019-06-08T18:35:57.669Z,2.23
2019-06-08T18:40:58.824Z,2.93
2019-06-08T18:43:28.939Z,1.60
2019-06-08T18:46:00.284Z,1.40
2019-06-08T18:48:31.399Z,2.50
2019-06-08T18:51:04.894Z,4.00
2019-06-08T18:53:49.111Z,7.07
2019-06-08T18:56:08.980Z,3.23
2019-06-08T18:58:40.021Z,2.97
2019-06-08T19:01:11.543Z,1.87
2019-06-08T19:03:45.664Z,1.60
2019-06-08T19:06:18.157Z,2.10
2019-06-08T19:08:57.785Z,2.60
2019-06-08T19:11:24.300Z,4.43
2019-06-08T19:13:57.929Z,1.87
2019-06-08T19:16:29.693Z,1.43
2019-06-08T19:19:00.813Z,1.27
2019-06-08T19:21:30.980Z,1.73
2019-06-08T19:24:02.200Z,1.90
2019-06-08T19:26:33.212Z,2.13
2019-06-08T19:29:04.628Z,1.80
2019-06-08T19:31:38.597Z,1.77
2019-06-08T19:34:08.530Z,2.10
2019-06-08T19:36:41.329Z,2.10
2019-06-08T19:39:12.411Z,2.00
2019-06-08T19:41:44.116Z,2.53
2019-06-08T19:44:15.586Z,2.07
2019-06-08T19:46:51.145Z,1.97
2019-06-08T19:49:20.152Z,2.00
2019-06-08T19:51:53.897Z,2.07
2019-06-08T19:54:22.997Z,2.17
2019-06-08T19:56:54.652Z,2.03
2019-06-08T19:59:27.480Z,1.80
2019-06-08T20:01:59.921Z,2.40
2019-06-08T20:04:31.121Z,1.60
2019-06-08T20:07:02.423Z,2.53
2019-06-08T20:09:33.433Z,2.43
2019-06-08T20:12:04.785Z,2.57
2019-06-08T20:14:37.500Z,2.33
2019-06-08T20:17:08.890Z,1.83
2019-06-08T20:19:42.761Z,2.67
2019-06-08T20:22:14.305Z,3.10
2019-06-08T20:24:47.030Z,2.33
2019-06-08T20:27:18.275Z,1.93
2019-06-08T20:29:51.243Z,3.37
2019-06-08T20:32:21.545Z,2.20
2019-06-08T20:34:53.780Z,2.30
2019-06-08T20:37:27.842Z,2.33
2019-06-08T20:40:09.659Z,2.20
2019-06-08T20:42:32.004Z,2.53
2019-06-08T20:45:04.060Z,2.30
2019-06-08T20:47:36.715Z,2.03
2019-06-08T20:50:08.889Z,2.30
2019-06-08T20:52:39.744Z,4.27
2019-06-08T20:55:11.075Z,4.23
2019-06-08T20:57:43.109Z,4.17
2019-06-08T21:00:14.556Z,2.97
2019-06-08T21:02:46.463Z,3.90
2019-06-08T21:05:19.983Z,3.97
2019-06-08T21:07:55.681Z,2.80
2019-06-08T21:10:28.147Z,2.63
2019-06-08T21:12:59.026Z,2.50
2019-06-08T21:15:29.966Z,2.00
2019-06-08T21:18:04.121Z,3.37
2019-06-08T21:20:37.609Z,2.67
2019-06-08T21:23:09.309Z,2.60
2019-06-08T21:25:40.197Z,2.80
2019-06-08T21:28:11.567Z,2.47
2019-06-08T21:30:42.577Z,2.70
2019-06-08T21:33:13.737Z,2.90
2019-06-08T21:35:44.772Z,2.13
2019-06-08T21:38:23.239Z,2.50
2019-06-08T21:40:50.962Z,2.30
2019-06-08T21:43:20.698Z,2.37
2019-06-08T21:45:53.064Z,2.40
2019-06-08T21:48:24.675Z,2.47
2019-06-08T21:51:01.043Z,2.80
2019-06-08T21:53:31.893Z,2.93
2019-06-08T21:56:03.435Z,2.80
2019-06-08T21:58:34.552Z,3.23
2019-06-08T22:01:07.367Z,3.50
2019-06-08T22:03:40.248Z,3.77
2019-06-08T22:06:12.824Z,3.50
2019-06-08T22:08:43.911Z,3.37
2019-06-08T22:11:17.594Z,2.97
2019-06-08T22:13:47.992Z,3.10
2019-06-08T22:16:19.362Z,3.70
2019-06-08T22:18:51.550Z,3.50
2019-06-08T22:21:22.214Z,3.40
2019-06-08T22:23:55.867Z,2.87
2019-06-08T22:26:28.037Z,2.60
2019-06-08T22:29:00.996Z,2.87
2019-06-08T22:31:32.124Z,2.57
2019-06-08T22:34:04.047Z,2.77
2019-06-08T22:36:37.265Z,3.63
2019-06-08T22:39:08.368Z,2.90
2019-06-08T22:41:39.500Z,3.13
2019-06-08T22:44:10.820Z,2.50
2019-06-08T22:46:41.749Z,2.53
2019-06-08T22:49:15.216Z,2.93
2019-06-08T22:51:47.709Z,2.60
2019-06-08T22:54:18.914Z,2.90
2019-06-08T22:56:50.036Z,2.83
2019-06-08T22:59:20.070Z,3.03
2019-06-08T23:01:51.262Z,2.87
2019-06-08T23:04:22.335Z,2.77
2019-06-08T23:07:29.810Z,2.90
2019-06-08T23:10:08.941Z,3.07
2019-06-08T23:12:39.892Z,2.80
2019-06-08T23:15:11.323Z,2.87
2019-06-08T23:17:42.522Z,2.93
2019-06-08T23:20:14.050Z,2.60
2019-06-08T23:22:47.381Z,3.03
2019-06-08T23:25:18.428Z,3.30
2019-06-08T23:27:49.727Z,3.30
2019-06-08T23:30:20.714Z,2.80
2019-06-08T23:32:52.048Z,3.20
2019-06-08T23:35:23.013Z,3.33
2019-06-08T23:37:54.210Z,2.93
2019-06-08T23:40:27.208Z,2.90
2019-06-08T23:42:58.497Z,3.50
2019-06-08T23:45:30.013Z,3.00
2019-06-08T23:48:01.554Z,3.13
2019-06-08T23:50:34.402Z,3.30
2019-06-08T23:53:09.119Z,3.63
2019-06-08T23:55:38.601Z,3.30
2019-06-08T23:58:11.267Z,3.30
